sensor_id;sensor_type;location;lat;lon;timestamp;temperature;humidity
23609;DHT22;11982;50.810;4.442;2022-08-19T00:00:39;18.20;99.90
23609;DHT22;11982;50.810;4.442;2022-08-19T00:03:05;18.10;99.90
23609;DHT22;11982;50.810;4.442;2022-08-19T00:05:31;18.10;99.90
23609;DHT22;11982;50.810;4.442;2022-08-19T00:07:57;18.00;99.90
23609;DHT22;11982;50.810;4.442;2022-08-19T00:10:23;17.90;99.90
23609;DHT22;11982;50.810;4.442;2022-08-19T00:12:49;17.60;99.90
23609;DHT22;11982;50.810;4.442;2022-08-19T00:15:18;17.50;99.90
23609;DHT22;11982;50.810;4.442;2022-08-19T00:17:45;17.50;99.90
23609;DHT22;11982;50.810;4.442;2022-08-19T00:20:14;17.40;99.90
23609;DHT22;11982;50.810;4.442;2022-08-19T00:22:44;17.40;99.90
23609;DHT22;11982;50.810;4.442;2022-08-19T00:25:10;17.50;99.90
23609;DHT22;11982;50.810;4.442;2022-08-19T00:27:36;17.60;99.90
23609;DHT22;11982;50.810;4.442;2022-08-19T00:30:03;17.80;99.90
23609;DHT22;11982;50.810;4.442;2022-08-19T00:32:29;18.00;99.90
23609;DHT22;11982;50.810;4.442;2022-08-19T00:34:55;18.10;99.90
23609;DHT22;11982;50.810;4.442;2022-08-19T00:37:22;18.40;99.90
23609;DHT22;11982;50.810;4.442;2022-08-19T00:39:49;18.60;99.90
23609;DHT22;11982;50.810;4.442;2022-08-19T00:42:16;18.70;99.90
23609;DHT22;11982;50.810;4.442;2022-08-19T00:44:42;18.80;99.90
23609;DHT22;11982;50.810;4.442;2022-08-19T00:47:08;18.80;99.90
23609;DHT22;11982;50.810;4.442;2022-08-19T00:49:40;18.80;99.90
23609;DHT22;11982;50.810;4.442;2022-08-19T00:52:09;18.90;99.90
23609;DHT22;11982;50.810;4.442;2022-08-19T00:54:38;19.00;99.90
23609;DHT22;11982;50.810;4.442;2022-08-19T00:57:07;19.00;99.90
23609;DHT22;11982;50.810;4.442;2022-08-19T00:59:35;19.00;99.90
23609;DHT22;11982;50.810;4.442;2022-08-19T01:02:03;19.10;99.90
23609;DHT22;11982;50.810;4.442;2022-08-19T01:04:29;19.10;99.90
23609;DHT22;11982;50.810;4.442;2022-08-19T01:06:56;19.10;99.90
23609;DHT22;11982;50.810;4.442;2022-08-19T01:09:21;19.20;99.90
23609;DHT22;11982;50.810;4.442;2022-08-19T01:11:47;19.20;99.90
23609;DHT22;11982;50.810;4.442;2022-08-19T01:14:13;19.10;99.90
23609;DHT22;11982;50.810;4.442;2022-08-19T01:16:41;19.00;99.90
23609;DHT22;11982;50.810;4.442;2022-08-19T01:19:17;18.90;99.90
23609;DHT22;11982;50.810;4.442;2022-08-19T01:21:50;18.70;99.90
23609;DHT22;11982;50.810;4.442;2022-08-19T01:24:17;18.70;99.90
23609;DHT22;11982;50.810;4.442;2022-08-19T01:26:44;18.70;99.90
23609;DHT22;11982;50.810;4.442;2022-08-19T01:29:10;18.70;99.90
23609;DHT22;11982;50.810;4.442;2022-08-19T01:31:36;18.70;99.90
23609;DHT22;11982;50.810;4.442;2022-08-19T01:34:05;18.60;99.90
23609;DHT22;11982;50.810;4.442;2022-08-19T01:36:43;18.50;99.90
23609;DHT22;11982;50.810;4.442;2022-08-19T01:39:14;18.40;99.90
23609;DHT22;11982;50.810;4.442;2022-08-19T01:41:39;18.40;99.90
23609;DHT22;11982;50.810;4.442;2022-08-19T01:44:07;18.40;99.90
23609;DHT22;11982;50.810;4.442;2022-08-19T01:46:33;18.30;99.90
23609;DHT22;11982;50.810;4.442;2022-08-19T01:48:59;18.20;99.90
23609;DHT22;11982;50.810;4.442;2022-08-19T01:51:26;18.10;99.90
23609;DHT22;11982;50.810;4.442;2022-08-19T01:53:52;18.00;99.90
23609;DHT22;11982;50.810;4.442;2022-08-19T01:56:18;17.90;99.90
23609;DHT22;11982;50.810;4.442;2022-08-19T01:58:53;17.90;99.90
23609;DHT22;11982;50.810;4.442;2022-08-19T02:01:21;17.80;99.90
23609;DHT22;11982;50.810;4.442;2022-08-19T02:03:47;17.80;99.90
23609;DHT22;11982;50.810;4.442;2022-08-19T02:06:12;17.70;99.90
23609;DHT22;11982;50.810;4.442;2022-08-19T02:08:39;17.80;99.90
23609;DHT22;11982;50.810;4.442;2022-08-19T02:11:06;17.70;99.90
23609;DHT22;11982;50.810;4.442;2022-08-19T02:13:33;17.80;99.90
23609;DHT22;11982;50.810;4.442;2022-08-19T02:15:59;17.70;99.90
23609;DHT22;11982;50.810;4.442;2022-08-19T02:18:25;17.80;99.90
23609;DHT22;11982;50.810;4.442;2022-08-19T02:20:52;17.80;99.90
23609;DHT22;11982;50.810;4.442;2022-08-19T02:23:17;17.60;99.90
23609;DHT22;11982;50.810;4.442;2022-08-19T02:25:45;17.50;99.90
23609;DHT22;11982;50.810;4.442;2022-08-19T02:28:12;17.40;99.90
23609;DHT22;11982;50.810;4.442;2022-08-19T02:30:38;17.40;99.90
23609;DHT22;11982;50.810;4.442;2022-08-19T02:33:05;17.30;99.90
23609;DHT22;11982;50.810;4.442;2022-08-19T02:35:31;17.30;99.90
23609;DHT22;11982;50.810;4.442;2022-08-19T02:37:57;17.30;99.90
23609;DHT22;11982;50.810;4.442;2022-08-19T02:40:48;17.20;99.90
23609;DHT22;11982;50.810;4.442;2022-08-19T02:43:15;17.10;99.90
23609;DHT22;11982;50.810;4.442;2022-08-19T02:45:41;17.10;99.90
23609;DHT22;11982;50.810;4.442;2022-08-19T02:48:07;17.00;99.90
23609;DHT22;11982;50.810;4.442;2022-08-19T02:50:37;16.90;99.90
23609;DHT22;11982;50.810;4.442;2022-08-19T02:53:03;16.90;99.90
23609;DHT22;11982;50.810;4.442;2022-08-19T02:55:28;17.00;99.90
23609;DHT22;11982;50.810;4.442;2022-08-19T02:57:54;16.90;99.90
23609;DHT22;11982;50.810;4.442;2022-08-19T03:00:20;16.90;99.90
23609;DHT22;11982;50.810;4.442;2022-08-19T03:02:46;16.90;99.90
23609;DHT22;11982;50.810;4.442;2022-08-19T03:05:12;16.80;99.90
23609;DHT22;11982;50.810;4.442;2022-08-19T03:07:38;16.70;99.90
23609;DHT22;11982;50.810;4.442;2022-08-19T03:10:04;16.60;99.90
23609;DHT22;11982;50.810;4.442;2022-08-19T03:12:30;16.70;99.90
23609;DHT22;11982;50.810;4.442;2022-08-19T03:14:56;16.60;99.90
23609;DHT22;11982;50.810;4.442;2022-08-19T03:17:22;16.70;99.90
23609;DHT22;11982;50.810;4.442;2022-08-19T03:19:47;16.60;99.90
23609;DHT22;11982;50.810;4.442;2022-08-19T03:22:13;16.60;99.90
23609;DHT22;11982;50.810;4.442;2022-08-19T03:24:39;16.60;99.90
23609;DHT22;11982;50.810;4.442;2022-08-19T03:27:05;16.70;99.90
23609;DHT22;11982;50.810;4.442;2022-08-19T03:29:32;16.60;99.90
23609;DHT22;11982;50.810;4.442;2022-08-19T03:31:59;16.50;99.90
23609;DHT22;11982;50.810;4.442;2022-08-19T03:34:28;16.40;99.90
23609;DHT22;11982;50.810;4.442;2022-08-19T03:36:56;16.30;99.90
23609;DHT22;11982;50.810;4.442;2022-08-19T03:39:23;16.40;99.90
23609;DHT22;11982;50.810;4.442;2022-08-19T03:41:50;16.30;99.90
23609;DHT22;11982;50.810;4.442;2022-08-19T03:44:19;16.30;99.90
23609;DHT22;11982;50.810;4.442;2022-08-19T03:46:51;16.30;99.90
23609;DHT22;11982;50.810;4.442;2022-08-19T03:49:18;16.30;99.90
23609;DHT22;11982;50.810;4.442;2022-08-19T03:51:46;16.30;99.90
23609;DHT22;11982;50.810;4.442;2022-08-19T03:54:14;16.30;99.90
23609;DHT22;11982;50.810;4.442;2022-08-19T03:56:41;16.30;99.90
23609;DHT22;11982;50.810;4.442;2022-08-19T03:59:13;16.30;99.90
23609;DHT22;11982;50.810;4.442;2022-08-19T04:01:39;16.20;99.90
23609;DHT22;11982;50.810;4.442;2022-08-19T04:04:05;16.20;99.90
23609;DHT22;11982;50.810;4.442;2022-08-19T04:06:34;16.10;99.90
23609;DHT22;11982;50.810;4.442;2022-08-19T04:09:03;16.10;99.90
23609;DHT22;11982;50.810;4.442;2022-08-19T04:11:35;16.10;99.90
23609;DHT22;11982;50.810;4.442;2022-08-19T04:14:02;16.00;99.90
23609;DHT22;11982;50.810;4.442;2022-08-19T04:16:28;16.10;99.90
23609;DHT22;11982;50.810;4.442;2022-08-19T04:18:59;16.00;99.90
23609;DHT22;11982;50.810;4.442;2022-08-19T04:21:26;16.00;99.90
23609;DHT22;11982;50.810;4.442;2022-08-19T04:23:52;16.00;99.90
23609;DHT22;11982;50.810;4.442;2022-08-19T04:26:25;16.00;99.90
23609;DHT22;11982;50.810;4.442;2022-08-19T04:28:51;16.00;99.90
23609;DHT22;11982;50.810;4.442;2022-08-19T04:31:25;15.90;99.90
23609;DHT22;11982;50.810;4.442;2022-08-19T04:33:53;16.00;99.90
23609;DHT22;11982;50.810;4.442;2022-08-19T04:36:22;15.90;99.90
23609;DHT22;11982;50.810;4.442;2022-08-19T04:38:49;15.90;99.90
23609;DHT22;11982;50.810;4.442;2022-08-19T04:41:15;15.90;99.90
23609;DHT22;11982;50.810;4.442;2022-08-19T04:44:00;15.90;99.90
23609;DHT22;11982;50.810;4.442;2022-08-19T04:46:27;15.80;99.90
23609;DHT22;11982;50.810;4.442;2022-08-19T04:48:55;15.80;99.90
23609;DHT22;11982;50.810;4.442;2022-08-19T04:51:23;15.80;99.90
23609;DHT22;11982;50.810;4.442;2022-08-19T04:53:49;15.80;99.90
23609;DHT22;11982;50.810;4.442;2022-08-19T04:56:16;15.80;99.90
23609;DHT22;11982;50.810;4.442;2022-08-19T04:58:43;15.80;99.90
23609;DHT22;11982;50.810;4.442;2022-08-19T05:01:12;15.80;99.90
23609;DHT22;11982;50.810;4.442;2022-08-19T05:03:38;15.80;99.90
23609;DHT22;11982;50.810;4.442;2022-08-19T05:06:10;15.90;99.90
23609;DHT22;11982;50.810;4.442;2022-08-19T05:08:38;15.90;99.90
23609;DHT22;11982;50.810;4.442;2022-08-19T05:11:10;15.90;99.90
23609;DHT22;11982;50.810;4.442;2022-08-19T05:13:36;15.90;99.90
23609;DHT22;11982;50.810;4.442;2022-08-19T05:16:02;15.90;99.90
23609;DHT22;11982;50.810;4.442;2022-08-19T05:18:28;15.90;99.90
23609;DHT22;11982;50.810;4.442;2022-08-19T05:21:16;15.90;99.90
23609;DHT22;11982;50.810;4.442;2022-08-19T05:24:00;15.90;99.90
23609;DHT22;11982;50.810;4.442;2022-08-19T05:26:28;16.00;99.90
23609;DHT22;11982;50.810;4.442;2022-08-19T05:28:54;16.10;99.90
23609;DHT22;11982;50.810;4.442;2022-08-19T05:31:21;16.20;99.90
23609;DHT22;11982;50.810;4.442;2022-08-19T05:33:47;16.20;99.90
23609;DHT22;11982;50.810;4.442;2022-08-19T05:36:13;16.20;99.90
23609;DHT22;11982;50.810;4.442;2022-08-19T05:38:39;16.30;99.90
23609;DHT22;11982;50.810;4.442;2022-08-19T05:41:09;16.30;99.90
23609;DHT22;11982;50.810;4.442;2022-08-19T05:43:36;16.40;99.90
23609;DHT22;11982;50.810;4.442;2022-08-19T05:46:03;16.40;99.90
23609;DHT22;11982;50.810;4.442;2022-08-19T05:48:34;16.50;99.90
23609;DHT22;11982;50.810;4.442;2022-08-19T05:51:04;16.50;99.90
23609;DHT22;11982;50.810;4.442;2022-08-19T05:53:32;16.50;99.90
23609;DHT22;11982;50.810;4.442;2022-08-19T05:56:04;16.50;99.90
23609;DHT22;11982;50.810;4.442;2022-08-19T05:58:30;16.60;99.90
23609;DHT22;11982;50.810;4.442;2022-08-19T06:00:56;16.70;99.90
23609;DHT22;11982;50.810;4.442;2022-08-19T06:03:21;16.90;99.90
23609;DHT22;11982;50.810;4.442;2022-08-19T06:05:47;17.10;99.90
23609;DHT22;11982;50.810;4.442;2022-08-19T06:08:13;17.20;99.90
23609;DHT22;11982;50.810;4.442;2022-08-19T06:10:38;17.40;99.90
23609;DHT22;11982;50.810;4.442;2022-08-19T06:13:04;17.50;99.90
23609;DHT22;11982;50.810;4.442;2022-08-19T06:15:31;17.70;99.90
23609;DHT22;11982;50.810;4.442;2022-08-19T06:17:57;17.80;99.90
23609;DHT22;11982;50.810;4.442;2022-08-19T06:20:22;17.80;99.90
23609;DHT22;11982;50.810;4.442;2022-08-19T06:22:49;17.70;99.90
23609;DHT22;11982;50.810;4.442;2022-08-19T06:25:20;17.70;99.90
23609;DHT22;11982;50.810;4.442;2022-08-19T06:27:46;17.70;99.90
23609;DHT22;11982;50.810;4.442;2022-08-19T06:30:12;17.80;99.90
23609;DHT22;11982;50.810;4.442;2022-08-19T06:32:38;18.00;99.90
23609;DHT22;11982;50.810;4.442;2022-08-19T06:35:04;18.10;99.90
23609;DHT22;11982;50.810;4.442;2022-08-19T06:37:30;18.30;99.90
23609;DHT22;11982;50.810;4.442;2022-08-19T06:39:56;18.40;99.90
23609;DHT22;11982;50.810;4.442;2022-08-19T06:42:22;18.50;99.90
23609;DHT22;11982;50.810;4.442;2022-08-19T06:44:48;18.50;99.90
23609;DHT22;11982;50.810;4.442;2022-08-19T06:47:17;18.50;99.90
23609;DHT22;11982;50.810;4.442;2022-08-19T06:49:44;18.60;99.90
23609;DHT22;11982;50.810;4.442;2022-08-19T06:52:09;18.60;99.90
23609;DHT22;11982;50.810;4.442;2022-08-19T06:54:39;18.70;99.90
23609;DHT22;11982;50.810;4.442;2022-08-19T06:57:06;18.80;99.90
23609;DHT22;11982;50.810;4.442;2022-08-19T06:59:33;18.90;99.90
23609;DHT22;11982;50.810;4.442;2022-08-19T07:02:01;19.00;99.90
23609;DHT22;11982;50.810;4.442;2022-08-19T07:04:30;19.30;99.90
23609;DHT22;11982;50.810;4.442;2022-08-19T07:07:03;19.10;99.90
23609;DHT22;11982;50.810;4.442;2022-08-19T07:09:31;19.00;99.90
23609;DHT22;11982;50.810;4.442;2022-08-19T07:11:57;19.10;99.90
23609;DHT22;11982;50.810;4.442;2022-08-19T07:14:26;19.20;99.90
23609;DHT22;11982;50.810;4.442;2022-08-19T07:16:53;19.30;99.90
23609;DHT22;11982;50.810;4.442;2022-08-19T07:19:25;19.50;99.90
23609;DHT22;11982;50.810;4.442;2022-08-19T07:21:53;19.80;99.90
23609;DHT22;11982;50.810;4.442;2022-08-19T07:24:21;19.80;99.90
23609;DHT22;11982;50.810;4.442;2022-08-19T07:26:50;19.80;99.90
23609;DHT22;11982;50.810;4.442;2022-08-19T07:29:17;19.70;99.90
23609;DHT22;11982;50.810;4.442;2022-08-19T07:31:43;19.70;99.90
23609;DHT22;11982;50.810;4.442;2022-08-19T07:34:11;19.90;99.90
23609;DHT22;11982;50.810;4.442;2022-08-19T07:36:40;20.20;99.90
23609;DHT22;11982;50.810;4.442;2022-08-19T07:39:22;20.10;99.90
23609;DHT22;11982;50.810;4.442;2022-08-19T07:41:48;19.90;99.90
23609;DHT22;11982;50.810;4.442;2022-08-19T07:44:16;19.90;99.90
23609;DHT22;11982;50.810;4.442;2022-08-19T07:46:46;19.80;99.90
23609;DHT22;11982;50.810;4.442;2022-08-19T07:49:13;19.70;99.90
23609;DHT22;11982;50.810;4.442;2022-08-19T07:51:59;20.00;99.90
23609;DHT22;11982;50.810;4.442;2022-08-19T07:54:28;20.40;99.90
23609;DHT22;11982;50.810;4.442;2022-08-19T07:56:55;20.60;99.90
23609;DHT22;11982;50.810;4.442;2022-08-19T07:59:23;20.70;99.90
23609;DHT22;11982;50.810;4.442;2022-08-19T08:01:50;20.80;99.90
23609;DHT22;11982;50.810;4.442;2022-08-19T08:04:17;20.80;99.90
23609;DHT22;11982;50.810;4.442;2022-08-19T08:07:01;20.80;99.90
23609;DHT22;11982;50.810;4.442;2022-08-19T08:09:46;20.90;99.90
23609;DHT22;11982;50.810;4.442;2022-08-19T08:12:25;20.50;99.90
23609;DHT22;11982;50.810;4.442;2022-08-19T08:14:55;20.50;99.90
23609;DHT22;11982;50.810;4.442;2022-08-19T08:17:23;20.60;99.90
23609;DHT22;11982;50.810;4.442;2022-08-19T08:19:50;20.70;99.90
23609;DHT22;11982;50.810;4.442;2022-08-19T08:22:18;20.80;99.90
23609;DHT22;11982;50.810;4.442;2022-08-19T08:25:09;21.00;99.90
23609;DHT22;11982;50.810;4.442;2022-08-19T08:27:38;21.20;99.90
23609;DHT22;11982;50.810;4.442;2022-08-19T08:30:23;21.20;99.90
23609;DHT22;11982;50.810;4.442;2022-08-19T08:33:13;21.40;99.90
23609;DHT22;11982;50.810;4.442;2022-08-19T08:35:58;21.50;99.90
23609;DHT22;11982;50.810;4.442;2022-08-19T08:38:24;21.30;99.90
23609;DHT22;11982;50.810;4.442;2022-08-19T08:41:04;21.20;99.90
23609;DHT22;11982;50.810;4.442;2022-08-19T08:43:40;21.30;99.90
23609;DHT22;11982;50.810;4.442;2022-08-19T08:46:13;21.20;99.90
23609;DHT22;11982;50.810;4.442;2022-08-19T08:51:45;21.30;99.90
23609;DHT22;11982;50.810;4.442;2022-08-19T08:54:15;21.60;99.90
23609;DHT22;11982;50.810;4.442;2022-08-19T08:56:44;21.30;99.90
23609;DHT22;11982;50.810;4.442;2022-08-19T08:59:23;21.10;99.90
23609;DHT22;11982;50.810;4.442;2022-08-19T09:01:51;21.00;99.90
23609;DHT22;11982;50.810;4.442;2022-08-19T09:04:17;20.90;99.90
23609;DHT22;11982;50.810;4.442;2022-08-19T09:07:11;21.00;99.90
23609;DHT22;11982;50.810;4.442;2022-08-19T09:09:42;20.90;99.90
23609;DHT22;11982;50.810;4.442;2022-08-19T09:15:03;21.00;99.90
23609;DHT22;11982;50.810;4.442;2022-08-19T09:17:31;21.10;99.90
23609;DHT22;11982;50.810;4.442;2022-08-19T09:20:05;21.30;99.90
23609;DHT22;11982;50.810;4.442;2022-08-19T09:22:38;21.30;99.90
23609;DHT22;11982;50.810;4.442;2022-08-19T09:25:06;21.40;99.90
23609;DHT22;11982;50.810;4.442;2022-08-19T09:27:32;21.30;99.90
23609;DHT22;11982;50.810;4.442;2022-08-19T09:30:01;21.40;99.90
23609;DHT22;11982;50.810;4.442;2022-08-19T09:32:27;21.70;99.90
23609;DHT22;11982;50.810;4.442;2022-08-19T09:34:53;21.80;99.90
23609;DHT22;11982;50.810;4.442;2022-08-19T09:37:21;21.90;99.90
23609;DHT22;11982;50.810;4.442;2022-08-19T09:39:47;22.20;99.90
23609;DHT22;11982;50.810;4.442;2022-08-19T09:42:13;22.50;99.90
23609;DHT22;11982;50.810;4.442;2022-08-19T09:44:41;22.60;99.90
23609;DHT22;11982;50.810;4.442;2022-08-19T09:47:26;22.40;99.90
23609;DHT22;11982;50.810;4.442;2022-08-19T09:50:01;22.10;99.90
23609;DHT22;11982;50.810;4.442;2022-08-19T09:52:26;22.00;99.90
23609;DHT22;11982;50.810;4.442;2022-08-19T09:54:52;22.10;99.90
23609;DHT22;11982;50.810;4.442;2022-08-19T09:57:33;22.10;99.90
23609;DHT22;11982;50.810;4.442;2022-08-19T10:00:08;22.10;99.90
23609;DHT22;11982;50.810;4.442;2022-08-19T10:02:35;22.20;99.90
23609;DHT22;11982;50.810;4.442;2022-08-19T10:05:01;22.40;99.90
23609;DHT22;11982;50.810;4.442;2022-08-19T10:07:45;22.60;99.90
23609;DHT22;11982;50.810;4.442;2022-08-19T10:10:10;22.60;99.90
23609;DHT22;11982;50.810;4.442;2022-08-19T10:12:37;22.50;99.90
23609;DHT22;11982;50.810;4.442;2022-08-19T10:15:04;22.60;99.90
23609;DHT22;11982;50.810;4.442;2022-08-19T10:17:31;22.90;99.90
23609;DHT22;11982;50.810;4.442;2022-08-19T10:20:01;22.90;99.90
23609;DHT22;11982;50.810;4.442;2022-08-19T10:22:32;23.20;99.90
23609;DHT22;11982;50.810;4.442;2022-08-19T10:24:59;23.40;99.90
23609;DHT22;11982;50.810;4.442;2022-08-19T10:27:24;23.30;99.90
23609;DHT22;11982;50.810;4.442;2022-08-19T10:29:50;23.20;99.90
23609;DHT22;11982;50.810;4.442;2022-08-19T10:32:16;23.50;99.90
23609;DHT22;11982;50.810;4.442;2022-08-19T10:34:42;23.30;99.90
23609;DHT22;11982;50.810;4.442;2022-08-19T10:37:07;23.00;99.90
23609;DHT22;11982;50.810;4.442;2022-08-19T10:39:37;23.20;99.90
23609;DHT22;11982;50.810;4.442;2022-08-19T10:42:05;23.30;99.90
23609;DHT22;11982;50.810;4.442;2022-08-19T10:44:33;23.30;99.90
23609;DHT22;11982;50.810;4.442;2022-08-19T10:47:00;23.20;99.90
23609;DHT22;11982;50.810;4.442;2022-08-19T10:49:26;23.30;99.90
23609;DHT22;11982;50.810;4.442;2022-08-19T10:51:52;23.40;99.90
23609;DHT22;11982;50.810;4.442;2022-08-19T10:54:36;23.00;99.90
23609;DHT22;11982;50.810;4.442;2022-08-19T10:57:20;23.20;99.90
23609;DHT22;11982;50.810;4.442;2022-08-19T10:59:49;23.10;99.90
23609;DHT22;11982;50.810;4.442;2022-08-19T11:02:15;23.10;99.90
23609;DHT22;11982;50.810;4.442;2022-08-19T11:04:40;23.00;99.90
23609;DHT22;11982;50.810;4.442;2022-08-19T11:07:07;23.00;99.90
23609;DHT22;11982;50.810;4.442;2022-08-19T11:09:39;23.00;99.90
23609;DHT22;11982;50.810;4.442;2022-08-19T11:12:05;23.30;99.90
23609;DHT22;11982;50.810;4.442;2022-08-19T11:14:31;23.40;99.90
23609;DHT22;11982;50.810;4.442;2022-08-19T11:16:58;23.60;99.90
23609;DHT22;11982;50.810;4.442;2022-08-19T11:19:24;23.70;99.90
23609;DHT22;11982;50.810;4.442;2022-08-19T11:21:59;23.10;99.90
23609;DHT22;11982;50.810;4.442;2022-08-19T11:24:41;22.60;99.90
23609;DHT22;11982;50.810;4.442;2022-08-19T11:27:11;22.50;99.90
23609;DHT22;11982;50.810;4.442;2022-08-19T11:29:38;22.30;99.90
23609;DHT22;11982;50.810;4.442;2022-08-19T11:32:07;22.40;99.90
23609;DHT22;11982;50.810;4.442;2022-08-19T11:34:33;22.50;99.90
23609;DHT22;11982;50.810;4.442;2022-08-19T11:36:58;22.70;99.90
23609;DHT22;11982;50.810;4.442;2022-08-19T11:39:42;22.60;99.90
23609;DHT22;11982;50.810;4.442;2022-08-19T11:42:22;22.50;99.90
23609;DHT22;11982;50.810;4.442;2022-08-19T11:45:08;22.60;99.90
23609;DHT22;11982;50.810;4.442;2022-08-19T11:47:34;22.70;99.90
23609;DHT22;11982;50.810;4.442;2022-08-19T11:49:59;22.90;99.90
23609;DHT22;11982;50.810;4.442;2022-08-19T11:52:25;23.40;99.90
23609;DHT22;11982;50.810;4.442;2022-08-19T11:54:51;23.50;99.90
23609;DHT22;11982;50.810;4.442;2022-08-19T11:57:17;23.70;99.90
23609;DHT22;11982;50.810;4.442;2022-08-19T11:59:49;23.70;99.90
23609;DHT22;11982;50.810;4.442;2022-08-19T12:02:15;23.50;99.90
23609;DHT22;11982;50.810;4.442;2022-08-19T12:04:41;23.40;99.90
23609;DHT22;11982;50.810;4.442;2022-08-19T12:07:06;23.20;99.90
23609;DHT22;11982;50.810;4.442;2022-08-19T12:09:33;23.60;99.90
23609;DHT22;11982;50.810;4.442;2022-08-19T12:12:00;23.80;99.90
23609;DHT22;11982;50.810;4.442;2022-08-19T12:14:27;24.10;99.90
23609;DHT22;11982;50.810;4.442;2022-08-19T12:16:53;24.30;99.90
23609;DHT22;11982;50.810;4.442;2022-08-19T12:19:19;24.60;99.90
23609;DHT22;11982;50.810;4.442;2022-08-19T12:21:45;24.80;99.90
23609;DHT22;11982;50.810;4.442;2022-08-19T12:24:11;24.50;99.90
23609;DHT22;11982;50.810;4.442;2022-08-19T12:26:36;24.70;99.90
23609;DHT22;11982;50.810;4.442;2022-08-19T12:29:02;24.70;99.90
23609;DHT22;11982;50.810;4.442;2022-08-19T12:31:29;25.00;99.90
23609;DHT22;11982;50.810;4.442;2022-08-19T12:33:55;25.10;99.90
23609;DHT22;11982;50.810;4.442;2022-08-19T12:36:21;25.00;99.90
23609;DHT22;11982;50.810;4.442;2022-08-19T12:38:47;24.90;99.90
23609;DHT22;11982;50.810;4.442;2022-08-19T12:41:15;25.30;99.90
23609;DHT22;11982;50.810;4.442;2022-08-19T12:43:43;25.70;99.90
23609;DHT22;11982;50.810;4.442;2022-08-19T12:46:10;25.60;99.90
23609;DHT22;11982;50.810;4.442;2022-08-19T12:48:36;25.20;99.90
23609;DHT22;11982;50.810;4.442;2022-08-19T12:51:10;25.30;99.90
23609;DHT22;11982;50.810;4.442;2022-08-19T12:53:37;25.50;99.90
23609;DHT22;11982;50.810;4.442;2022-08-19T12:56:03;25.70;99.90
23609;DHT22;11982;50.810;4.442;2022-08-19T12:58:29;25.50;99.90
23609;DHT22;11982;50.810;4.442;2022-08-19T13:00:54;25.40;99.90
23609;DHT22;11982;50.810;4.442;2022-08-19T13:03:21;25.40;99.90
23609;DHT22;11982;50.810;4.442;2022-08-19T13:05:52;25.40;99.90
23609;DHT22;11982;50.810;4.442;2022-08-19T13:08:18;25.50;99.90
23609;DHT22;11982;50.810;4.442;2022-08-19T13:10:43;25.80;99.90
23609;DHT22;11982;50.810;4.442;2022-08-19T13:13:10;25.80;99.90
23609;DHT22;11982;50.810;4.442;2022-08-19T13:15:37;25.60;99.90
23609;DHT22;11982;50.810;4.442;2022-08-19T13:18:06;25.60;99.90
23609;DHT22;11982;50.810;4.442;2022-08-19T13:20:32;25.60;99.90
23609;DHT22;11982;50.810;4.442;2022-08-19T13:22:58;25.60;99.90
23609;DHT22;11982;50.810;4.442;2022-08-19T13:25:24;25.50;99.90
23609;DHT22;11982;50.810;4.442;2022-08-19T13:27:51;25.50;99.90
23609;DHT22;11982;50.810;4.442;2022-08-19T13:30:18;25.40;99.90
23609;DHT22;11982;50.810;4.442;2022-08-19T13:33:03;25.40;99.90
23609;DHT22;11982;50.810;4.442;2022-08-19T13:35:45;25.40;99.90
23609;DHT22;11982;50.810;4.442;2022-08-19T13:38:13;25.40;99.90
23609;DHT22;11982;50.810;4.442;2022-08-19T13:40:40;25.40;99.90
23609;DHT22;11982;50.810;4.442;2022-08-19T13:43:06;25.60;99.90
23609;DHT22;11982;50.810;4.442;2022-08-19T13:45:33;25.70;99.90
23609;DHT22;11982;50.810;4.442;2022-08-19T13:48:00;25.70;99.90
23609;DHT22;11982;50.810;4.442;2022-08-19T13:50:29;25.70;99.90
23609;DHT22;11982;50.810;4.442;2022-08-19T13:53:16;25.60;99.90
23609;DHT22;11982;50.810;4.442;2022-08-19T13:55:45;25.90;99.90
23609;DHT22;11982;50.810;4.442;2022-08-19T13:58:12;25.50;99.90
23609;DHT22;11982;50.810;4.442;2022-08-19T14:00:43;25.40;99.90
23609;DHT22;11982;50.810;4.442;2022-08-19T14:03:10;25.40;99.90
23609;DHT22;11982;50.810;4.442;2022-08-19T14:05:36;25.30;99.90
23609;DHT22;11982;50.810;4.442;2022-08-19T14:08:02;25.00;99.90
23609;DHT22;11982;50.810;4.442;2022-08-19T14:10:29;24.70;99.90
23609;DHT22;11982;50.810;4.442;2022-08-19T14:12:59;24.60;99.90
23609;DHT22;11982;50.810;4.442;2022-08-19T14:15:26;24.50;99.90
23609;DHT22;11982;50.810;4.442;2022-08-19T14:17:52;24.90;99.90
23609;DHT22;11982;50.810;4.442;2022-08-19T14:20:19;24.90;99.90
23609;DHT22;11982;50.810;4.442;2022-08-19T14:22:49;24.80;99.90
23609;DHT22;11982;50.810;4.442;2022-08-19T14:25:21;24.40;99.90
23609;DHT22;11982;50.810;4.442;2022-08-19T14:27:50;24.40;99.90
23609;DHT22;11982;50.810;4.442;2022-08-19T14:30:25;24.30;99.90
23609;DHT22;11982;50.810;4.442;2022-08-19T14:32:52;24.50;99.90
23609;DHT22;11982;50.810;4.442;2022-08-19T14:35:19;24.40;99.90
23609;DHT22;11982;50.810;4.442;2022-08-19T14:37:48;24.30;99.90
23609;DHT22;11982;50.810;4.442;2022-08-19T14:40:16;24.00;99.90
23609;DHT22;11982;50.810;4.442;2022-08-19T14:42:43;23.90;99.90
23609;DHT22;11982;50.810;4.442;2022-08-19T14:45:10;23.40;99.90
23609;DHT22;11982;50.810;4.442;2022-08-19T14:47:37;23.10;99.90
23609;DHT22;11982;50.810;4.442;2022-08-19T14:50:05;22.90;99.90
23609;DHT22;11982;50.810;4.442;2022-08-19T14:52:32;22.70;99.90
23609;DHT22;11982;50.810;4.442;2022-08-19T14:54:58;22.40;99.90
23609;DHT22;11982;50.810;4.442;2022-08-19T14:57:23;22.20;99.90
23609;DHT22;11982;50.810;4.442;2022-08-19T14:59:49;22.10;99.90
23609;DHT22;11982;50.810;4.442;2022-08-19T15:02:15;22.30;99.90
23609;DHT22;11982;50.810;4.442;2022-08-19T15:04:41;22.20;99.90
23609;DHT22;11982;50.810;4.442;2022-08-19T15:07:07;22.60;99.90
23609;DHT22;11982;50.810;4.442;2022-08-19T15:09:33;23.30;99.90
23609;DHT22;11982;50.810;4.442;2022-08-19T15:12:00;24.10;99.90
23609;DHT22;11982;50.810;4.442;2022-08-19T15:14:27;24.50;99.90
23609;DHT22;11982;50.810;4.442;2022-08-19T15:16:59;25.10;99.90
23609;DHT22;11982;50.810;4.442;2022-08-19T15:19:24;24.90;99.90
23609;DHT22;11982;50.810;4.442;2022-08-19T15:21:50;24.90;99.90
23609;DHT22;11982;50.810;4.442;2022-08-19T15:24:16;24.20;99.90
23609;DHT22;11982;50.810;4.442;2022-08-19T15:26:43;24.00;99.90
23609;DHT22;11982;50.810;4.442;2022-08-19T15:29:09;23.60;99.90
23609;DHT22;11982;50.810;4.442;2022-08-19T15:31:35;23.50;99.90
23609;DHT22;11982;50.810;4.442;2022-08-19T15:34:02;23.40;99.90
23609;DHT22;11982;50.810;4.442;2022-08-19T15:36:39;23.40;99.90
23609;DHT22;11982;50.810;4.442;2022-08-19T15:39:15;23.40;99.90
23609;DHT22;11982;50.810;4.442;2022-08-19T15:41:43;23.50;99.90
23609;DHT22;11982;50.810;4.442;2022-08-19T15:44:12;23.60;99.90